Time;durP1;ratioP1;P1;durP2;ratioP2;P2;SDS_P1;SDS_P2;PMS_P1;PMS_P2;Temp;Humidity;BMP_temperature;BMP_pressure;BME280_temperature;BME280_humidity;BME280_pressure;Samples;Min_cycle;Max_cycle;Signal;HPM_P1;HPM_P2
2021/09/27 00:01:51;;;;;;;18.15;13.98;;;17.40;99.90;;;;;;5074326;28;20039;-85
2021/09/27 00:04:17;;;;;;;16.83;13.55;;;17.40;99.90;;;;;;5074498;28;20029;-85
2021/09/27 00:06:42;;;;;;;18.17;14.13;;;17.40;99.90;;;;;;5057204;28;20024;-86
2021/09/27 00:09:08;;;;;;;17.00;12.55;;;17.40;99.90;;;;;;5056058;28;20032;-85
2021/09/27 00:11:34;;;;;;;18.60;13.13;;;17.40;99.90;;;;;;5073200;28;20180;-85
2021/09/27 00:14:01;;;;;;;18.35;13.18;;;17.30;99.90;;;;;;5074433;28;20032;-85
2021/09/27 00:16:30;;;;;;;16.67;12.98;;;17.40;99.90;;;;;;5074248;28;20029;-85
2021/09/27 00:18:56;;;;;;;;;;;17.40;99.90;;;;;;5056532;28;20052;-85
2021/09/27 00:21:26;;;;;;;17.83;12.68;;;17.40;99.90;;;;;;5074243;28;20356;-85
2021/09/27 00:23:52;;;;;;;17.33;12.93;;;17.30;99.90;;;;;;5056101;28;20495;-85
2021/09/27 00:26:20;;;;;;;16.98;13.15;;;17.30;99.90;;;;;;5056294;28;20024;-85
2021/09/27 00:28:46;;;;;;;18.67;12.80;;;17.30;99.90;;;;;;5056254;28;20029;-85
2021/09/27 00:31:12;;;;;;;14.43;11.45;;;17.30;99.90;;;;;;5055246;28;20029;-85
2021/09/27 00:33:39;;;;;;;16.27;12.77;;;17.30;99.90;;;;;;5056189;28;20028;-85
2021/09/27 00:36:05;;;;;;;17.23;12.60;;;17.30;99.90;;;;;;5055791;28;20452;-85
2021/09/27 00:38:31;;;;;;;18.55;12.65;;;17.30;99.90;;;;;;5055966;28;20056;-86
2021/09/27 00:41:00;;;;;;;15.25;11.73;;;17.30;99.90;;;;;;5073190;28;20048;-85
2021/09/27 00:43:29;;;;;;;16.77;12.30;;;17.30;99.90;;;;;;5055581;28;20473;-85
2021/09/27 00:45:58;;;;;;;17.13;12.75;;;17.20;99.90;;;;;;5055917;28;20377;-85
2021/09/27 00:48:25;;;;;;;15.63;12.57;;;17.20;99.90;;;;;;5073401;28;20043;-86
2021/09/27 00:50:57;;;;;;;18.33;11.98;;;17.20;99.90;;;;;;5055150;28;20048;-85
2021/09/27 00:53:27;;;;;;;14.57;11.60;;;17.20;99.90;;;;;;5055556;28;20047;-85
2021/09/27 00:55:54;;;;;;;17.30;11.98;;;17.20;99.90;;;;;;5055473;28;20493;-85
2021/09/27 00:58:21;;;;;;;17.20;12.15;;;17.20;99.90;;;;;;5054858;28;20024;-85
2021/09/27 01:00:47;;;;;;;14.35;11.25;;;17.20;99.90;;;;;;5054983;28;20115;-85
2021/09/27 01:03:13;;;;;;;16.15;11.77;;;17.20;99.90;;;;;;5073327;28;20025;-85
2021/09/27 01:05:48;;;;;;;14.82;11.93;;;17.10;99.90;;;;;;5055347;28;20473;-85
2021/09/27 01:08:22;;;;;;;15.85;12.27;;;17.10;99.90;;;;;;5055224;28;20166;-85
2021/09/27 01:11:09;;;;;;;16.73;12.60;;;17.10;99.90;;;;;;5054349;28;20480;-86
2021/09/27 01:13:53;;;;;;;18.60;12.82;;;17.10;99.90;;;;;;5055308;28;20397;-85
2021/09/27 01:16:31;;;;;;;15.93;11.82;;;17.00;99.90;;;;;;5073099;28;20035;-85
2021/09/27 01:19:41;;;;;;;14.45;11.25;;;17.00;99.90;;;;;;5072413;28;20031;-85
2021/09/27 01:22:32;;;;;;;18.25;12.93;;;17.00;99.90;;;;;;5031904;28;20029;-85
2021/09/27 01:25:29;;;;;;;17.13;11.95;;;17.00;99.90;;;;;;5072814;28;20039;-85
2021/09/27 01:28:13;;;;;;;17.35;11.98;;;17.00;99.90;;;;;;5055228;28;20472;-86
2021/09/27 01:30:53;;;;;;;16.85;12.05;;;16.90;99.90;;;;;;5054624;28;20165;-86
2021/09/27 01:33:47;;;;;;;17.65;11.93;;;16.90;99.90;;;;;;5073181;28;20032;-85
2021/09/27 01:36:26;;;;;;;16.77;11.65;;;16.90;99.90;;;;;;5054934;28;20032;-85
2021/09/27 01:39:07;;;;;;;15.73;12.32;;;16.90;99.90;;;;;;5054674;28;20029;-85
2021/09/27 01:41:39;;;;;;;16.05;12.15;;;16.90;99.90;;;;;;5055482;28;20115;-86
2021/09/27 01:44:23;;;;;;;17.58;12.27;;;16.90;99.90;;;;;;5073299;28;20016;-85
2021/09/27 01:46:57;;;;;;;19.80;12.52;;;16.80;99.90;;;;;;5055394;28;20016;-85
2021/09/27 01:49:37;;;;;;;17.00;12.10;;;16.80;99.90;;;;;;5054793;28;20048;-86
2021/09/27 01:52:24;;;;;;;17.95;12.82;;;16.80;99.90;;;;;;5073056;28;20032;-85
2021/09/27 01:55:03;;;;;;;18.08;12.48;;;16.80;99.90;;;;;;5073103;28;20028;-85
2021/09/27 01:57:39;;;;;;;;;;;16.80;99.90;;;;;;5055986;28;20028;-85
2021/09/27 02:00:09;;;;;;;18.38;12.20;;;16.80;99.90;;;;;;5055327;28;19991;-85
2021/09/27 02:02:47;;;;;;;17.70;12.55;;;16.90;99.90;;;;;;5054966;28;20028;-86
2021/09/27 02:05:26;;;;;;;17.13;12.07;;;16.80;99.90;;;;;;5072616;28;20028;-85
2021/09/27 02:08:12;;;;;;;13.38;10.93;;;16.80;99.90;;;;;;5054854;28;20496;-85
2021/09/27 02:10:44;;;;;;;17.63;10.82;;;16.80;99.90;;;;;;5076030;28;20119;-85
2021/09/27 02:13:16;;;;;;;14.60;10.57;;;16.80;99.90;;;;;;5058442;28;20493;-85
2021/09/27 02:15:58;;;;;;;16.95;11.52;;;16.80;99.90;;;;;;5076168;28;20035;-85
2021/09/27 02:18:41;;;;;;;16.73;11.52;;;16.80;99.90;;;;;;5058640;28;20493;-85
2021/09/27 02:21:30;;;;;;;13.55;10.35;;;16.80;99.90;;;;;;5075867;28;20056;-85
2021/09/27 02:24:02;;;;;;;14.98;10.70;;;16.80;99.90;;;;;;5057720;28;20020;-85
2021/09/27 02:26:28;;;;;;;15.27;11.45;;;16.80;99.90;;;;;;5075499;28;20024;-86
2021/09/27 02:28:54;;;;;;;15.60;10.82;;;16.80;99.90;;;;;;5057109;28;20052;-85
2021/09/27 02:31:24;;;;;;;15.07;11.30;;;16.80;99.90;;;;;;5075297;28;20017;-85
2021/09/27 02:34:07;;;;;;;15.57;10.88;;;16.80;99.90;;;;;;5057551;28;20024;-86
2021/09/27 02:36:50;;;;;;;15.73;11.35;;;16.80;99.90;;;;;;5057934;28;20489;-85
2021/09/27 02:39:27;;;;;;;14.45;10.10;;;16.80;99.90;;;;;;5056594;28;20021;-85
2021/09/27 02:41:56;;;;;;;13.88;10.18;;;16.80;99.90;;;;;;5056356;28;20031;-85
2021/09/27 02:44:23;;;;;;;15.23;10.38;;;16.80;99.90;;;;;;5056378;28;20089;-86
2021/09/27 02:46:55;;;;;;;17.33;11.55;;;16.80;99.90;;;;;;5057111;28;20473;-85
2021/09/27 02:49:27;;;;;;;16.40;11.55;;;16.80;99.90;;;;;;5074425;28;20446;-85
2021/09/27 02:51:56;;;;;;;15.27;10.50;;;16.80;99.90;;;;;;5074997;28;20028;-85
2021/09/27 02:54:33;;;;;;;;;;;16.80;99.90;;;;;;5075455;28;20028;-85
2021/09/27 02:57:27;;;;;;;15.68;11.68;;;16.80;99.90;;;;;;5056953;28;19908;-85
2021/09/27 03:00:29;;;;;;;13.60;10.38;;;16.80;99.90;;;;;;5016254;28;20032;-85
2021/09/27 03:03:11;;;;;;;15.18;10.23;;;16.80;99.90;;;;;;5046734;28;20032;-85
2021/09/27 03:05:53;;;;;;;15.05;10.23;;;16.90;99.90;;;;;;5057198;28;20028;-85
2021/09/27 03:08:33;;;;;;;15.30;9.82;;;16.90;99.90;;;;;;5056911;28;20028;-85
2021/09/27 03:11:22;;;;;;;16.08;10.15;;;16.90;99.90;;;;;;5056499;28;20021;-85
2021/09/27 03:14:01;;;;;;;13.38;10.10;;;16.90;99.90;;;;;;5074556;28;20123;-85
2021/09/27 03:16:49;;;;;;;13.52;9.70;;;16.90;99.90;;;;;;5074736;28;20377;-84
2021/09/27 03:19:39;;;;;;;15.53;9.90;;;17.00;99.90;;;;;;5073785;28;20431;-84
2021/09/27 03:22:31;;;;;;;14.52;10.02;;;16.90;99.90;;;;;;5056538;28;20025;-85
2021/09/27 03:25:09;;;;;;;14.30;10.63;;;16.90;99.90;;;;;;5074684;28;20016;-85
2021/09/27 03:28:05;;;;;;;13.85;10.20;;;16.90;99.90;;;;;;5057104;28;20416;-86
2021/09/27 03:30:58;;;;;;;14.55;10.48;;;17.00;99.90;;;;;;5073795;28;20054;-86
2021/09/27 03:33:24;;;;;;;12.32;9.18;;;17.00;99.90;;;;;;5074973;28;20020;-85
2021/09/27 03:36:04;;;;;;;16.30;10.70;;;17.00;99.90;;;;;;5056742;28;20511;-85
2021/09/27 03:38:37;;;;;;;13.20;9.65;;;17.00;99.90;;;;;;5056941;28;20389;-85
2021/09/27 03:41:23;;;;;;;14.30;10.05;;;17.00;99.90;;;;;;5074658;28;20020;-85
2021/09/27 03:44:03;;;;;;;14.30;10.45;;;17.00;99.90;;;;;;5056702;28;20039;-86
2021/09/27 03:46:39;;;;;;;14.68;10.82;;;17.10;99.90;;;;;;5056628;28;20021;-85
2021/09/27 03:49:11;;;;;;;14.30;9.80;;;17.00;99.90;;;;;;5074218;28;20024;-85
2021/09/27 03:52:06;;;;;;;13.65;9.20;;;17.00;99.90;;;;;;5074080;28;20031;-86
2021/09/27 03:55:01;;;;;;;13.43;9.57;;;17.10;99.90;;;;;;5056020;28;20036;-86
2021/09/27 03:57:46;;;;;;;17.00;10.35;;;17.10;99.90;;;;;;5055893;28;20025;-86
2021/09/27 04:00:20;;;;;;;15.27;10.23;;;17.00;99.90;;;;;;5073264;28;20036;-86
2021/09/27 04:02:59;;;;;;;13.05;9.13;;;17.00;99.90;;;;;;5055829;28;20431;-84
2021/09/27 04:05:48;;;;;;;10.68;8.18;;;17.00;99.90;;;;;;5055791;28;20389;-84
2021/09/27 04:08:20;;;;;;;;;;;17.00;99.90;;;;;;5056206;28;20127;-85
2021/09/27 04:11:00;;;;;;;18.42;9.63;;;17.00;99.90;;;;;;5073013;28;19904;-85
2021/09/27 04:13:53;;;;;;;15.20;8.85;;;17.00;99.90;;;;;;5073425;28;20056;-85
2021/09/27 04:16:51;;;;;;;12.95;9.05;;;17.00;99.90;;;;;;5055487;28;20393;-85
2021/09/27 04:19:28;;;;;;;13.48;9.45;;;17.10;99.90;;;;;;5072916;28;20024;-85
2021/09/27 04:21:54;;;;;;;14.45;9.40;;;17.00;99.90;;;;;;5055591;28;20032;-85
2021/09/27 04:24:56;;;;;;;12.30;9.13;;;17.00;99.90;;;;;;5055611;28;20393;-85
2021/09/27 04:27:35;;;;;;;14.60;9.77;;;17.10;99.90;;;;;;5055471;28;20020;-85
2021/09/27 04:30:22;;;;;;;14.10;9.52;;;17.10;99.90;;;;;;5054965;28;20028;-85
2021/09/27 04:33:22;;;;;;;12.73;8.98;;;17.10;99.90;;;;;;5054590;28;20112;-85
2021/09/27 04:36:25;;;;;;;12.63;8.98;;;17.10;99.90;;;;;;5073003;28;20029;-85
2021/09/27 04:38:55;;;;;;;13.18;8.93;;;17.10;99.90;;;;;;5054915;28;20112;-85
2021/09/27 04:41:40;;;;;;;13.32;9.27;;;17.10;99.90;;;;;;5055385;28;20025;-86
2021/09/27 04:44:21;;;;;;;11.02;8.38;;;17.10;99.90;;;;;;5055209;28;20020;-85
2021/09/27 04:47:06;;;;;;;14.32;8.82;;;17.10;99.90;;;;;;5055248;28;20130;-85
2021/09/27 04:49:41;;;;;;;15.55;9.60;;;17.10;99.90;;;;;;5055131;28;20024;-84
2021/09/27 04:52:17;;;;;;;14.85;8.95;;;17.10;99.90;;;;;;5073038;28;20394;-85
2021/09/27 04:55:16;;;;;;;13.18;8.93;;;17.10;99.90;;;;;;5073677;28;20020;-85
2021/09/27 04:57:51;;;;;;;16.75;9.95;;;17.10;99.90;;;;;;5056829;28;20036;-85
2021/09/27 05:00:41;;;;;;;12.15;8.52;;;17.10;99.90;;;;;;5056316;28;20071;-85
2021/09/27 05:03:44;;;;;;;12.27;8.02;;;17.10;99.90;;;;;;5057905;28;20016;-85
2021/09/27 05:07:06;;;;;;;12.75;8.57;;;17.10;99.90;;;;;;5075820;28;20070;-87
2021/09/27 05:09:46;;;;;;;15.00;9.65;;;17.10;99.90;;;;;;5069267;28;20036;-85
2021/09/27 05:12:36;;;;;;;13.98;9.10;;;17.10;99.90;;;;;;5076707;28;20017;-85
2021/09/27 05:15:08;;;;;;;13.93;9.25;;;17.10;99.90;;;;;;5058466;28;20020;-85
2021/09/27 05:17:39;;;;;;;13.35;9.10;;;17.10;99.90;;;;;;5074756;28;20086;-87
2021/09/27 05:20:31;;;;;;;19.75;11.43;;;17.20;99.90;;;;;;5057114;28;20031;-85
2021/09/27 05:23:23;;;;;;;15.82;10.23;;;17.10;99.90;;;;;;5059429;28;20025;-84
2021/09/27 05:26:20;;;;;;;15.73;9.50;;;17.10;99.90;;;;;;5057463;28;20028;-85
2021/09/27 05:28:49;;;;;;;14.95;9.93;;;17.20;99.90;;;;;;5057431;28;20029;-85
2021/09/27 05:31:49;;;;;;;16.52;9.25;;;17.20;99.90;;;;;;5076039;28;20107;-85
2021/09/27 05:34:51;;;;;;;17.77;9.48;;;17.20;99.90;;;;;;5056147;28;20032;-85
2021/09/27 05:37:28;;;;;;;11.88;7.93;;;17.20;99.90;;;;;;5056744;28;20043;-85
2021/09/27 05:40:32;;;;;;;12.00;8.63;;;17.20;99.90;;;;;;5072864;28;20033;-86
2021/09/27 05:43:37;;;;;;;15.13;9.55;;;17.20;99.90;;;;;;5076718;28;20134;-85
2021/09/27 05:46:27;;;;;;;11.60;8.45;;;17.20;99.90;;;;;;5076856;28;20055;-85
2021/09/27 05:48:56;;;;;;;22.55;9.75;;;17.20;99.90;;;;;;5057532;28;20515;-85
2021/09/27 05:51:40;;;;;;;14.82;8.52;;;17.20;99.90;;;;;;5075713;28;20477;-85
2021/09/27 05:54:18;;;;;;;17.52;8.43;;;17.20;99.90;;;;;;5057965;28;20401;-85
2021/09/27 05:57:02;;;;;;;16.33;8.45;;;17.20;99.90;;;;;;5057186;28;20024;-85
2021/09/27 06:00:07;;;;;;;18.85;7.45;;;17.20;99.90;;;;;;5074318;28;20025;-85
2021/09/27 06:02:56;;;;;;;13.80;8.13;;;17.20;99.90;;;;;;5073566;28;20025;-85
2021/09/27 06:05:25;;;;;;;;;;;17.20;99.90;;;;;;5055291;28;20025;-85
2021/09/27 06:08:00;;;;;;;13.07;7.53;;;17.20;99.90;;;;;;5072567;28;19950;-85
2021/09/27 06:10:36;;;;;;;13.50;8.10;;;17.20;99.90;;;;;;5054331;28;20385;-85
2021/09/27 06:13:21;;;;;;;13.43;7.72;;;17.20;99.90;;;;;;5054860;28;20020;-84
2021/09/27 06:16:09;;;;;;;14.45;7.90;;;17.20;99.90;;;;;;5054649;28;20481;-86
2021/09/27 06:18:57;;;;;;;10.38;6.90;;;17.20;99.90;;;;;;5035178;28;20078;-85
2021/09/27 06:21:50;;;;;;;14.75;8.35;;;17.20;99.90;;;;;;5072628;28;20385;-85
2021/09/27 06:24:33;;;;;;;12.57;8.07;;;17.30;99.90;;;;;;5072915;28;20442;-84
2021/09/27 06:27:04;;;;;;;13.95;7.55;;;17.30;99.90;;;;;;5054781;28;20462;-85
2021/09/27 06:29:49;;;;;;;11.65;7.70;;;17.30;99.90;;;;;;5054148;28;20115;-85
2021/09/27 06:32:30;;;;;;;10.98;7.35;;;17.30;99.90;;;;;;5072676;28;20021;-85
2021/09/27 06:35:04;;;;;;;13.35;7.90;;;17.30;99.90;;;;;;5054043;28;20029;-85
2021/09/27 06:37:30;;;;;;;13.15;8.82;;;17.30;99.90;;;;;;5054779;28;20036;-86
2021/09/27 06:39:56;;;;;;;12.20;8.70;;;17.30;99.90;;;;;;5054506;28;20021;-85
2021/09/27 06:42:22;;;;;;;15.30;8.90;;;17.40;99.90;;;;;;5054945;28;20048;-85
2021/09/27 06:44:48;;;;;;;11.88;8.35;;;17.40;99.90;;;;;;5055120;28;20071;-86
2021/09/27 06:47:15;;;;;;;12.45;8.38;;;17.40;99.90;;;;;;5055259;28;20078;-86
2021/09/27 06:49:41;;;;;;;12.10;7.60;;;17.40;99.90;;;;;;5072449;28;20039;-85
2021/09/27 06:52:07;;;;;;;11.57;7.80;;;17.40;99.90;;;;;;5055067;28;20036;-85
2021/09/27 06:54:33;;;;;;;11.50;8.07;;;17.40;99.90;;;;;;5055445;28;20029;-85
2021/09/27 06:56:59;;;;;;;11.20;7.53;;;17.40;99.90;;;;;;5077218;28;20036;-85
2021/09/27 06:59:25;;;;;;;11.10;8.10;;;17.40;99.90;;;;;;5057641;28;20028;-85
2021/09/27 07:01:51;;;;;;;9.32;7.32;;;17.50;99.90;;;;;;5058538;28;20032;-86
2021/09/27 07:04:16;;;;;;;11.45;8.05;;;17.50;99.90;;;;;;5058529;28;20025;-86
2021/09/27 07:06:42;;;;;;;13.05;8.45;;;17.50;99.90;;;;;;5076277;28;20029;-85
2021/09/27 07:09:08;;;;;;;12.15;8.18;;;17.50;99.90;;;;;;5075703;28;20040;-87
2021/09/27 07:11:34;;;;;;;11.73;7.82;;;17.50;99.90;;;;;;5076043;28;20032;-86
2021/09/27 07:14:00;;;;;;;11.30;7.90;;;17.50;99.90;;;;;;5058407;28;20032;-85
2021/09/27 07:16:25;;;;;;;13.80;8.70;;;17.50;99.90;;;;;;5075992;28;20028;-85
2021/09/27 07:18:51;;;;;;;10.15;8.18;;;17.50;99.90;;;;;;5058162;28;20219;-85
2021/09/27 07:21:17;;;;;;;10.85;8.10;;;17.50;99.90;;;;;;5058588;28;20035;-85
2021/09/27 07:23:43;;;;;;;12.02;7.95;;;17.50;99.90;;;;;;5058799;28;20474;-85
2021/09/27 07:26:12;;;;;;;10.95;7.20;;;17.60;99.90;;;;;;5059099;28;20025;-86
2021/09/27 07:28:38;;;;;;;13.35;8.75;;;17.60;99.90;;;;;;5058602;28;20036;-85
2021/09/27 07:31:05;;;;;;;10.63;8.55;;;17.60;99.90;;;;;;5058421;28;20035;-85
2021/09/27 07:33:33;;;;;;;12.48;8.57;;;17.60;99.90;;;;;;5058643;28;20025;-85
2021/09/27 07:35:58;;;;;;;11.98;9.00;;;17.60;99.90;;;;;;5057941;28;20354;-85
2021/09/27 07:38:24;;;;;;;13.15;9.30;;;17.60;99.90;;;;;;5059154;28;20068;-85
2021/09/27 07:40:52;;;;;;;12.63;8.23;;;17.60;99.90;;;;;;5076194;28;20024;-85
2021/09/27 07:43:18;;;;;;;13.75;8.90;;;17.70;99.90;;;;;;5058305;28;20031;-84
2021/09/27 07:45:45;;;;;;;10.38;7.63;;;17.70;99.90;;;;;;5058531;28;20123;-85
2021/09/27 07:48:16;;;;;;;15.40;8.30;;;17.70;99.90;;;;;;5076354;28;20071;-84
2021/09/27 07:50:45;;;;;;;10.63;7.65;;;17.70;99.90;;;;;;5059368;28;20086;-85
2021/09/27 07:53:12;;;;;;;11.68;8.45;;;17.80;99.90;;;;;;5076372;28;20553;-85
2021/09/27 07:55:38;;;;;;;11.73;7.93;;;17.80;99.90;;;;;;5059010;28;20042;-85
2021/09/27 07:58:03;;;;;;;9.70;7.50;;;17.80;99.90;;;;;;5057483;28;20032;-85
2021/09/27 08:00:29;;;;;;;11.32;8.45;;;17.90;99.90;;;;;;5058929;28;20393;-86
2021/09/27 08:02:55;;;;;;;13.75;8.10;;;17.90;99.90;;;;;;5058053;28;20024;-86
2021/09/27 08:05:29;;;;;;;14.75;9.07;;;18.00;99.90;;;;;;5057509;28;20108;-85
2021/09/27 08:07:55;;;;;;;11.55;8.75;;;18.10;99.90;;;;;;5056880;28;20088;-85
2021/09/27 08:10:23;;;;;;;11.40;8.05;;;18.10;99.90;;;;;;5057317;28;20497;-84
2021/09/27 08:12:49;;;;;;;10.60;7.90;;;18.20;99.90;;;;;;5057634;28;20025;-85
2021/09/27 08:15:19;;;;;;;12.10;8.48;;;18.20;99.90;;;;;;5057380;28;20029;-85
2021/09/27 08:17:47;;;;;;;11.25;7.85;;;18.30;99.90;;;;;;5074952;28;20029;-85
2021/09/27 08:20:15;;;;;;;10.10;8.02;;;18.30;99.90;;;;;;5056376;28;20551;-85
2021/09/27 08:22:41;;;;;;;11.35;8.18;;;18.40;99.90;;;;;;5057380;28;20025;-85
2021/09/27 08:25:09;;;;;;;11.27;8.23;;;18.40;99.90;;;;;;5075082;28;20020;-85
2021/09/27 08:27:35;;;;;;;11.10;8.25;;;18.40;99.90;;;;;;5057318;28;20021;-84
2021/09/27 08:30:01;;;;;;;11.68;8.05;;;18.40;99.90;;;;;;5074477;28;20032;-84
2021/09/27 08:32:27;;;;;;;12.98;8.23;;;18.40;99.90;;;;;;5075494;28;20024;-85
2021/09/27 08:34:53;;;;;;;12.23;8.43;;;18.50;99.90;;;;;;5056607;28;20025;-85
2021/09/27 08:37:20;;;;;;;14.07;7.75;;;18.50;99.90;;;;;;5056110;28;20055;-85
2021/09/27 08:39:48;;;;;;;12.07;7.93;;;18.50;99.90;;;;;;5054582;28;20115;-84
2021/09/27 08:42:37;;;;;;;10.45;7.43;;;18.60;99.90;;;;;;5055085;28;20493;-84
2021/09/27 08:45:09;;;;;;;9.93;7.13;;;18.60;99.90;;;;;;5072773;28;20025;-85
2021/09/27 08:47:53;;;;;;;13.18;8.95;;;18.60;99.90;;;;;;5055168;28;20025;-85
2021/09/27 08:50:32;;;;;;;9.63;7.25;;;18.60;99.90;;;;;;5054713;28;20377;-85
2021/09/27 08:53:22;;;;;;;10.98;8.23;;;18.60;99.90;;;;;;5055313;28;20025;-85
2021/09/27 08:55:49;;;;;;;9.75;7.55;;;18.60;99.90;;;;;;5054985;28;20501;-85
2021/09/27 08:59:02;;;;;;;9.10;7.97;;;18.70;99.90;;;;;;5054797;28;20020;-84
2021/09/27 09:01:40;;;;;;;11.25;7.50;;;18.70;99.90;;;;;;5055080;28;20027;-85
2021/09/27 09:04:16;;;;;;;10.35;6.90;;;18.70;99.90;;;;;;5056974;28;20442;-85
2021/09/27 09:06:47;;;;;;;9.55;7.60;;;18.70;99.90;;;;;;5056538;28;20534;-85
2021/09/27 09:09:22;;;;;;;9.60;7.00;;;18.70;99.90;;;;;;5055312;28;20291;-85
2021/09/27 09:12:01;;;;;;;9.20;6.88;;;18.70;99.90;;;;;;5055921;28;20025;-85
2021/09/27 09:14:43;;;;;;;10.23;7.20;;;18.70;99.90;;;;;;5055917;28;20086;-85
2021/09/27 09:17:18;;;;;;;9.25;7.00;;;18.70;99.90;;;;;;5055719;28;20079;-85
2021/09/27 09:19:45;;;;;;;8.93;6.40;;;18.70;99.90;;;;;;5073321;28;20074;-85
2021/09/27 09:22:21;;;;;;;11.85;7.35;;;18.70;99.90;;;;;;5073662;28;20024;-85
2021/09/27 09:24:46;;;;;;;8.77;7.10;;;18.70;99.90;;;;;;5055975;28;20051;-85
2021/09/27 09:27:14;;;;;;;8.38;6.57;;;18.80;99.90;;;;;;5056021;28;20389;-85
2021/09/27 09:29:42;;;;;;;9.75;6.95;;;18.90;99.90;;;;;;5073661;28;20025;-85
2021/09/27 09:32:16;;;;;;;9.38;6.68;;;18.80;99.90;;;;;;5056002;28;20024;-85
2021/09/27 09:34:43;;;;;;;8.30;6.28;;;18.90;99.90;;;;;;5056155;28;20101;-85
2021/09/27 09:37:24;;;;;;;10.35;7.22;;;19.00;99.90;;;;;;5056394;28;20139;-85
2021/09/27 09:40:13;;;;;;;9.43;6.60;;;19.00;99.90;;;;;;5056123;28;20025;-86
2021/09/27 09:42:39;;;;;;;;;;;19.00;99.90;;;;;;5068675;28;20033;-85
2021/09/27 09:45:21;;;;;;;7.78;6.25;;;19.10;99.90;;;;;;5074546;28;19905;-85
2021/09/27 09:47:47;;;;;;;11.05;7.20;;;19.10;99.90;;;;;;5056225;28;20016;-85
2021/09/27 09:50:21;;;;;;;9.10;6.30;;;19.20;99.90;;;;;;5055897;28;20081;-85
2021/09/27 09:52:50;;;;;;;11.38;6.43;;;19.20;99.90;;;;;;5056330;28;20034;-86
2021/09/27 09:55:39;;;;;;;9.40;6.88;;;19.20;99.90;;;;;;5056297;28;20056;-85
2021/09/27 09:58:08;;;;;;;;;;;19.30;99.90;;;;;;5056844;28;20029;-85
2021/09/27 10:00:41;;;;;;;8.15;5.85;;;19.30;99.90;;;;;;5055665;28;20343;-85
2021/09/27 10:03:10;;;;;;;10.90;6.25;;;19.40;99.90;;;;;;5072058;28;20024;-85
2021/09/27 10:05:50;;;;;;;8.63;6.35;;;19.40;99.90;;;;;;5054536;28;20017;-85
2021/09/27 10:08:26;;;;;;;10.00;6.30;;;19.40;99.90;;;;;;5072234;28;20072;-86
2021/09/27 10:11:07;;;;;;;11.77;6.57;;;19.40;99.90;;;;;;5053537;28;20561;-85
2021/09/27 10:13:54;;;;;;;6.93;5.40;;;19.40;99.90;;;;;;5054234;28;20545;-85
2021/09/27 10:16:46;;;;;;;9.52;5.53;;;19.40;99.90;;;;;;5071896;28;20107;-85
2021/09/27 10:19:31;;;;;;;10.02;6.35;;;19.40;99.90;;;;;;5071128;28;20032;-85
2021/09/27 10:22:06;;;;;;;8.60;5.70;;;19.40;99.90;;;;;;5054104;28;20028;-85
2021/09/27 10:24:44;;;;;;;12.35;5.75;;;19.40;99.90;;;;;;5071946;28;20474;-85
2021/09/27 10:27:40;;;;;;;6.72;5.22;;;19.40;99.90;;;;;;5071703;28;20388;-85
2021/09/27 10:30:20;;;;;;;8.80;4.93;;;19.40;99.90;;;;;;5071520;28;20036;-85
2021/09/27 10:32:50;;;;;;;7.13;5.22;;;19.40;99.90;;;;;;5074915;28;20114;-85
2021/09/27 10:35:40;;;;;;;9.05;5.40;;;19.40;99.90;;;;;;5058019;28;20036;-85
2021/09/27 10:38:11;;;;;;;9.27;5.60;;;19.50;99.90;;;;;;5076630;28;20028;-86
2021/09/27 10:40:39;;;;;;;7.22;5.10;;;19.50;99.90;;;;;;5057083;28;20028;-84
2021/09/27 10:43:12;;;;;;;6.57;5.30;;;19.60;99.90;;;;;;5075334;28;20029;-85
2021/09/27 10:45:42;;;;;;;9.38;6.00;;;19.60;99.90;;;;;;5057750;28;20427;-85
2021/09/27 10:48:09;;;;;;;8.00;5.20;;;19.60;99.90;;;;;;5075862;28;20055;-85
2021/09/27 10:50:59;;;;;;;11.27;4.72;;;19.60;99.90;;;;;;5074473;28;20559;-85
2021/09/27 10:53:56;;;;;;;6.68;4.88;;;19.70;99.90;;;;;;5057454;28;20035;-85
2021/09/27 10:56:38;;;;;;;8.25;5.15;;;19.70;99.90;;;;;;5057223;28;20047;-85
2021/09/27 10:59:14;;;;;;;9.88;5.03;;;19.70;99.90;;;;;;5056524;28;20119;-85
2021/09/27 11:01:41;;;;;;;8.90;5.03;;;19.70;99.90;;;;;;5073465;28;20044;-85
2021/09/27 11:04:18;;;;;;;8.20;4.93;;;19.70;99.90;;;;;;5074922;28;20396;-85
2021/09/27 11:06:55;;;;;;;6.20;4.30;;;19.80;99.90;;;;;;5056943;28;20028;-85
2021/09/27 11:09:29;;;;;;;7.38;4.78;;;19.80;99.90;;;;;;5056174;28;20060;-85
2021/09/27 11:11:59;;;;;;;7.15;4.93;;;19.70;99.90;;;;;;5074699;28;20544;-85
2021/09/27 11:14:51;;;;;;;7.65;4.32;;;19.70;99.90;;;;;;5056751;28;20120;-85
2021/09/27 11:17:45;;;;;;;8.50;4.38;;;19.70;99.90;;;;;;5056665;28;20035;-85
2021/09/27 11:20:16;;;;;;;6.15;4.30;;;19.70;99.90;;;;;;5038419;28;20037;-85
2021/09/27 11:22:54;;;;;;;8.10;5.10;;;19.70;99.90;;;;;;5056441;28;20116;-85
2021/09/27 11:25:23;;;;;;;9.07;4.60;;;19.70;99.90;;;;;;5056345;28;20023;-85
2021/09/27 11:28:07;;;;;;;5.20;4.10;;;19.60;99.90;;;;;;5056473;28;20283;-85
2021/09/27 11:31:04;;;;;;;6.90;4.40;;;19.60;99.90;;;;;;5073823;28;20048;-85
2021/09/27 11:33:32;;;;;;;11.05;4.82;;;19.60;99.90;;;;;;5074327;28;20017;-85
2021/09/27 11:36:13;;;;;;;6.15;5.18;;;19.60;99.90;;;;;;5055996;28;20042;-84
2021/09/27 11:39:04;;;;;;;6.60;5.03;;;19.60;99.90;;;;;;5055850;28;20481;-85
2021/09/27 11:41:36;;;;;;;7.40;4.47;;;19.70;99.90;;;;;;5073893;28;20021;-85
2021/09/27 11:44:28;;;;;;;8.30;5.00;;;19.80;99.90;;;;;;5056277;28;20020;-85
2021/09/27 11:47:07;;;;;;;8.25;3.80;;;19.80;99.90;;;;;;5073984;28;20052;-85
2021/09/27 11:52:55;;;;;;;6.90;3.20;;;20.00;99.90;;;;;;5056419;28;20024;-85
2021/09/27 11:55:29;;;;;;;6.55;3.08;;;20.10;99.90;;;;;;5056004;28;20035;-85
2021/09/27 11:58:10;;;;;;;6.88;3.20;;;20.10;99.90;;;;;;5074869;28;20051;-85
2021/09/27 12:00:47;;;;;;;6.18;3.20;;;20.20;99.90;;;;;;5055399;28;20367;-85
2021/09/27 12:03:20;;;;;;;6.82;2.75;;;20.30;99.90;;;;;;5057106;28;20588;-86
2021/09/27 12:06:01;;;;;;;6.65;3.10;;;20.40;99.90;;;;;;5057728;28;20485;-86
2021/09/27 12:08:33;;;;;;;5.85;2.90;;;20.40;99.90;;;;;;5057482;28;20035;-85
2021/09/27 12:11:05;;;;;;;6.43;2.60;;;20.50;99.90;;;;;;5055504;28;20025;-85
2021/09/27 12:13:39;;;;;;;5.57;2.80;;;20.50;99.90;;;;;;5055651;28;20024;-85
2021/09/27 12:16:12;;;;;;;5.18;2.55;;;20.50;99.90;;;;;;5055570;28;20029;-85
2021/09/27 12:18:44;;;;;;;4.30;2.50;;;20.50;99.90;;;;;;5073768;28;20029;-85
2021/09/27 12:21:20;;;;;;;5.53;2.40;;;20.50;99.90;;;;;;5054901;28;20017;-85
2021/09/27 12:24:05;;;;;;;5.88;2.88;;;20.50;99.90;;;;;;5055542;28;20017;-86
2021/09/27 12:26:37;;;;;;;7.85;2.35;;;20.50;99.90;;;;;;5073666;28;20470;-85
2021/09/27 12:29:05;;;;;;;6.00;2.03;;;20.60;99.90;;;;;;5055126;28;20024;-85
2021/09/27 12:31:31;;;;;;;4.13;2.30;;;20.50;99.90;;;;;;5073356;28;20532;-85
2021/09/27 12:34:08;;;;;;;4.30;2.20;;;20.40;99.90;;;;;;5055439;28;20025;-85
2021/09/27 12:36:33;;;;;;;6.03;2.03;;;20.40;99.90;;;;;;5073443;28;20115;-85
2021/09/27 12:38:59;;;;;;;4.13;1.77;;;20.40;99.90;;;;;;5054773;28;20119;-86
2021/09/27 12:41:26;;;;;;;6.38;2.05;;;20.40;99.90;;;;;;5073156;28;20096;-84
2021/09/27 12:44:02;;;;;;;5.03;2.22;;;20.40;99.90;;;;;;5055288;28;20036;-85
2021/09/27 12:46:29;;;;;;;5.90;2.40;;;20.40;99.90;;;;;;5073848;28;20052;-85
2021/09/27 12:48:58;;;;;;;3.47;2.00;;;20.30;99.90;;;;;;5054520;28;20082;-85
2021/09/27 12:51:58;;;;;;;4.78;2.40;;;20.30;99.90;;;;;;5072812;28;20056;-85
2021/09/27 12:54:40;;;;;;;4.45;2.80;;;20.30;99.90;;;;;;5032990;28;20064;-85
2021/09/27 12:57:25;;;;;;;6.53;2.50;;;20.40;99.90;;;;;;5054905;28;20035;-85
2021/09/27 12:59:51;;;;;;;4.25;2.22;;;20.40;99.90;;;;;;5054283;28;20024;-85
2021/09/27 13:02:18;;;;;;;5.25;2.45;;;20.40;99.90;;;;;;5072587;28;20016;-85
2021/09/27 13:05:03;;;;;;;4.57;2.28;;;20.50;99.90;;;;;;5054781;28;20035;-85
2021/09/27 13:07:43;;;;;;;6.75;3.20;;;20.50;99.90;;;;;;5054639;28;20024;-85
2021/09/27 13:10:30;;;;;;;6.95;2.50;;;20.50;99.90;;;;;;5054256;28;20032;-86
2021/09/27 13:13:07;;;;;;;5.93;3.05;;;20.60;99.90;;;;;;5054586;28;20035;-85
2021/09/27 13:15:44;;;;;;;5.32;2.65;;;20.60;99.90;;;;;;5072680;28;20095;-85
2021/09/27 13:18:21;;;;;;;5.07;2.35;;;20.60;99.90;;;;;;5054533;28;20032;-85
2021/09/27 13:21:05;;;;;;;6.03;2.95;;;20.50;99.90;;;;;;5054039;28;20024;-85
2021/09/27 13:23:39;;;;;;;5.25;2.53;;;20.50;99.90;;;;;;5054854;28;20025;-85
2021/09/27 13:26:12;;;;;;;4.78;2.50;;;20.50;99.90;;;;;;5054077;28;20021;-85
2021/09/27 13:28:43;;;;;;;5.32;2.53;;;20.60;99.90;;;;;;5054453;28;20028;-85
2021/09/27 13:31:33;;;;;;;6.78;2.40;;;20.60;99.90;;;;;;5053749;28;20067;-85